Time;durP1;ratioP1;P1;durP2;ratioP2;P2;SDS_P1;SDS_P2;PMS_P1;PMS_P2;Temp;Humidity;BMP_temperature;BMP_pressure;BME280_temperature;BME280_humidity;BME280_pressure;Samples;Min_cycle;Max_cycle;Signal;HPM_P1;HPM_P2
2020/12/04 12:27:56;;;;;;;2.30;1.20;;;19.50;62.20;;;;;;5114699;27;20416;-57
2020/12/04 12:30:21;;;;;;;3.40;1.10;;;19.80;57.20;;;;;;5123912;28;20031;-53
2020/12/04 12:32:47;;;;;;;2.25;1.38;;;20.00;57.90;;;;;;4765201;27;9999773;-50
2020/12/04 12:35:13;;;;;;;6.78;1.35;;;20.00;59.10;;;;;;5122486;27;20474;-56
2020/12/04 12:37:44;;;;;;;13.13;1.83;;;20.00;59.70;;;;;;5121805;28;20027;-50
2020/12/04 12:40:10;;;;;;;2.85;1.45;;;20.00;60.10;;;;;;5121680;27;20024;-53
2020/12/04 12:42:37;;;;;;;2.25;1.10;;;20.00;60.80;;;;;;5117295;28;20057;-53
2020/12/04 12:45:06;;;;;;;2.13;1.20;;;20.00;61.10;;;;;;5122227;28;20035;-55
2020/12/04 12:47:32;;;;;;;3.08;0.98;;;20.00;61.30;;;;;;5119776;28;20165;-56
2020/12/04 12:49:58;;;;;;;1.75;0.93;;;20.00;61.50;;;;;;5122187;28;20593;-54
2020/12/04 12:52:23;;;;;;;1.83;1.08;;;20.00;61.50;;;;;;5120235;28;20031;-54
2020/12/04 12:54:49;;;;;;;1.60;0.90;;;20.00;61.60;;;;;;5120055;28;20028;-54
2020/12/04 12:57:14;;;;;;;3.95;1.10;;;20.00;61.70;;;;;;5114702;28;20038;-55
2020/12/04 12:59:40;;;;;;;1.55;0.80;;;20.00;61.70;;;;;;5120106;27;20507;-55
2020/12/04 13:02:06;;;;;;;2.60;1.17;;;20.00;61.90;;;;;;5117875;28;20028;-58
2020/12/04 13:04:31;;;;;;;1.30;1.17;;;19.90;61.90;;;;;;5118057;28;20031;-54
2020/12/04 13:06:57;;;;;;;1.48;0.80;;;20.00;62.10;;;;;;5117476;28;20031;-52
2020/12/04 13:09:23;;;;;;;3.35;0.98;;;20.00;61.80;;;;;;5115919;28;20028;-55
2020/12/04 13:11:49;;;;;;;2.28;0.90;;;20.00;61.90;;;;;;5124383;28;20037;-56
2020/12/04 13:14:14;;;;;;;1.85;0.75;;;20.00;61.80;;;;;;5126152;27;20024;-58
2020/12/04 13:16:42;;;;;;;3.40;0.73;;;20.00;61.60;;;;;;5121151;28;20406;-57
2020/12/04 13:19:08;;;;;;;2.13;0.73;;;20.00;61.50;;;;;;5124002;28;20023;-57
2020/12/04 13:24:18;;;;;;;1.20;0.65;;;20.00;61.30;;;;;;5127303;28;20035;-55
2020/12/04 13:26:44;;;;;;;1.05;0.80;;;20.10;61.30;;;;;;5124328;28;20047;-55
2020/12/04 13:29:10;;;;;;;1.65;0.60;;;20.00;61.20;;;;;;5122783;28;20537;-55
2020/12/04 13:31:36;;;;;;;1.27;0.60;;;20.00;61.40;;;;;;5123016;28;20027;-58
2020/12/04 13:34:02;;;;;;;1.48;0.80;;;20.10;61.30;;;;;;5123841;28;20478;-59
2020/12/04 13:36:27;;;;;;;1.02;0.77;;;20.00;61.40;;;;;;5127564;28;20379;-56
2020/12/04 13:38:53;;;;;;;1.90;0.70;;;20.00;61.20;;;;;;5112322;27;20034;-52
2020/12/04 13:41:19;;;;;;;1.30;1.20;;;20.10;61.20;;;;;;5111236;28;20367;-57
2020/12/04 13:43:44;;;;;;;2.05;0.80;;;20.10;61.10;;;;;;5106905;28;20028;-57
2020/12/04 13:46:10;;;;;;;0.73;0.60;;;20.00;61.30;;;;;;5109941;28;20046;-55
2020/12/04 13:48:35;;;;;;;0.88;0.68;;;20.00;61.30;;;;;;5113315;28;20639;-53
2020/12/04 13:51:01;;;;;;;1.30;0.60;;;20.00;61.10;;;;;;5110674;28;20028;-57
2020/12/04 13:53:26;;;;;;;1.17;0.60;;;20.00;61.20;;;;;;5110094;28;20469;-58
2020/12/04 13:55:53;;;;;;;0.90;0.60;;;20.00;61.20;;;;;;5110241;28;20070;-59
2020/12/04 13:58:19;;;;;;;1.17;0.60;;;20.00;61.30;;;;;;5106195;28;20034;-53
2020/12/04 14:00:44;;;;;;;0.60;0.50;;;20.00;61.20;;;;;;5103422;28;20031;-57
2020/12/04 14:03:10;;;;;;;1.05;0.60;;;20.00;61.10;;;;;;5104448;28;20058;-59
2020/12/04 14:05:36;;;;;;;1.08;0.60;;;20.00;61.20;;;;;;5101655;28;20028;-55
2020/12/04 14:08:02;;;;;;;3.08;0.60;;;20.00;61.10;;;;;;5102277;28;20122;-58
2020/12/04 14:10:27;;;;;;;0.68;0.60;;;20.00;60.90;;;;;;5105416;28;20016;-58
2020/12/04 14:12:53;;;;;;;1.17;0.50;;;20.00;60.70;;;;;;5107785;28;20457;-57
2020/12/04 14:15:18;;;;;;;0.93;0.50;;;20.00;60.60;;;;;;5111005;28;20043;-54
2020/12/04 14:17:44;;;;;;;0.40;0.40;;;19.90;60.70;;;;;;5108437;28;20095;-59
2020/12/04 14:20:09;;;;;;;1.83;0.93;;;20.00;60.70;;;;;;5106512;28;20039;-57
2020/12/04 14:22:40;;;;;;;1.25;0.45;;;20.00;60.50;;;;;;5110949;28;20126;-55
2020/12/04 14:25:06;;;;;;;0.50;0.50;;;19.90;60.60;;;;;;5110035;28;20032;-59
2020/12/04 14:27:32;;;;;;;0.60;0.55;;;19.90;60.40;;;;;;5109910;28;20047;-56
2020/12/04 14:29:57;;;;;;;0.50;0.50;;;19.90;60.30;;;;;;5108369;28;20080;-52
2020/12/04 14:32:23;;;;;;;1.17;0.50;;;19.80;60.40;;;;;;5110454;28;20470;-54
2020/12/04 14:34:49;;;;;;;0.40;0.40;;;19.80;60.40;;;;;;5107183;28;20115;-55
2020/12/04 14:37:14;;;;;;;0.73;0.50;;;19.90;60.40;;;;;;5109906;28;20031;-52
2020/12/04 14:39:40;;;;;;;1.08;0.50;;;19.80;60.50;;;;;;5106466;28;20073;-55
2020/12/04 14:42:05;;;;;;;0.40;0.40;;;19.80;60.60;;;;;;5105264;28;20035;-53
2020/12/04 14:44:31;;;;;;;0.82;0.60;;;19.80;60.50;;;;;;5105697;28;20383;-55
2020/12/04 14:46:56;;;;;;;0.82;0.55;;;19.90;60.50;;;;;;5108872;28;20096;-53
2020/12/04 14:49:22;;;;;;;0.70;0.40;;;19.80;60.50;;;;;;5103102;28;20125;-52
2020/12/04 14:51:48;;;;;;;1.63;0.50;;;19.80;60.50;;;;;;5106347;28;20107;-53
2020/12/04 14:54:14;;;;;;;1.10;0.52;;;19.80;60.20;;;;;;5110928;28;20026;-55
2020/12/04 14:56:39;;;;;;;0.45;0.45;;;19.80;60.20;;;;;;5109710;28;20542;-55
2020/12/04 14:59:05;;;;;;;0.85;0.50;;;19.80;60.20;;;;;;5109385;28;20027;-54
2020/12/04 15:01:30;;;;;;;0.85;0.52;;;19.80;60.30;;;;;;5108750;28;20425;-55
2020/12/04 15:03:56;;;;;;;0.30;0.30;;;19.80;60.30;;;;;;5110180;28;20066;-56
2020/12/04 15:06:21;;;;;;;0.93;0.45;;;19.80;60.30;;;;;;5111598;28;20031;-55
2020/12/04 15:08:47;;;;;;;1.30;0.30;;;19.80;60.30;;;;;;5107668;28;20081;-58
2020/12/04 15:11:13;;;;;;;0.60;0.40;;;19.80;60.30;;;;;;5107967;28;20034;-54
2020/12/04 15:13:40;;;;;;;0.40;0.28;;;19.70;60.30;;;;;;5106224;28;20081;-54
2020/12/04 15:16:06;;;;;;;0.68;0.50;;;19.60;60.20;;;;;;5109072;28;20621;-54
2020/12/04 15:18:32;;;;;;;0.60;0.60;;;19.60;60.40;;;;;;5111571;28;20051;-53
2020/12/04 15:20:58;;;;;;;1.30;0.52;;;19.60;60.30;;;;;;5109671;28;20110;-51
2020/12/04 15:23:23;;;;;;;0.30;0.30;;;19.60;60.20;;;;;;5108158;28;20115;-53
2020/12/04 15:25:49;;;;;;;0.95;0.65;;;19.50;60.60;;;;;;5106339;28;20096;-55
2020/12/04 15:28:15;;;;;;;0.98;0.32;;;19.60;60.70;;;;;;5106523;28;20016;-54
2020/12/04 15:30:41;;;;;;;0.80;0.60;;;19.60;60.20;;;;;;5111485;28;20030;-59
2020/12/04 15:33:07;;;;;;;0.47;0.30;;;19.50;60.50;;;;;;5109239;28;20072;-55
2020/12/04 15:35:32;;;;;;;0.95;0.30;;;19.60;60.30;;;;;;5109051;28;20020;-55
2020/12/04 15:37:58;;;;;;;0.40;0.40;;;19.50;60.30;;;;;;5108341;28;20402;-57
2020/12/04 15:40:24;;;;;;;1.30;0.47;;;19.50;60.50;;;;;;5104759;28;20027;-50
2020/12/04 15:42:49;;;;;;;1.20;0.60;;;19.50;60.50;;;;;;5103540;28;20032;-53
2020/12/04 15:45:15;;;;;;;0.68;0.40;;;19.40;60.70;;;;;;5108045;28;20121;-53
2020/12/04 15:47:41;;;;;;;1.15;0.43;;;19.40;60.80;;;;;;5106314;28;20509;-55
2020/12/04 15:50:09;;;;;;;0.63;0.40;;;19.30;61.00;;;;;;4819209;27;10000901;-54
2020/12/04 15:52:35;;;;;;;0.50;0.50;;;19.30;61.10;;;;;;5101956;28;20228;-55
2020/12/04 15:55:00;;;;;;;2.08;0.52;;;19.30;61.40;;;;;;5105028;28;20039;-56
2020/12/04 15:57:26;;;;;;;0.57;0.40;;;19.40;61.50;;;;;;5102366;28;20035;-56
2020/12/04 15:59:52;;;;;;;4.60;0.43;;;19.40;61.30;;;;;;5103396;28;20733;-53
2020/12/04 16:02:17;;;;;;;1.05;0.35;;;19.40;61.30;;;;;;5099603;28;20016;-56
2020/12/04 16:04:43;;;;;;;5.05;0.50;;;19.50;61.20;;;;;;5105271;28;20411;-57
2020/12/04 16:07:08;;;;;;;0.88;0.70;;;19.50;61.00;;;;;;5104704;28;20066;-57
2020/12/04 16:09:34;;;;;;;1.45;0.40;;;19.60;61.10;;;;;;5106098;28;20080;-57
2020/12/04 16:12:00;;;;;;;1.42;0.50;;;19.60;61.80;;;;;;4742950;28;10000498;-59
2020/12/04 16:14:26;;;;;;;2.38;0.40;;;19.50;61.20;;;;;;5103035;28;20028;-54
2020/12/04 16:16:52;;;;;;;1.88;0.57;;;19.50;61.30;;;;;;5099314;28;20036;-53
2020/12/04 16:19:18;;;;;;;0.85;0.50;;;19.50;61.20;;;;;;5101543;28;20020;-59
2020/12/04 16:21:45;;;;;;;1.42;0.50;;;19.40;61.70;;;;;;5094899;28;20042;-59
2020/12/04 16:24:11;;;;;;;3.05;0.40;;;19.50;61.40;;;;;;5086328;28;20499;-62
2020/12/04 16:26:37;;;;;;;1.88;0.50;;;19.50;61.30;;;;;;5099810;28;20040;-56
2020/12/04 16:29:03;;;;;;;3.40;0.60;;;19.50;61.30;;;;;;5102680;28;20031;-57
2020/12/04 16:31:29;;;;;;;0.50;0.40;;;19.50;61.50;;;;;;5104268;28;20107;-53
2020/12/04 16:33:55;;;;;;;2.58;0.65;;;19.50;61.30;;;;;;5104371;28;20475;-55
2020/12/04 16:36:22;;;;;;;0.47;0.47;;;19.40;61.30;;;;;;5101327;28;20503;-56
2020/12/04 16:38:48;;;;;;;2.35;0.50;;;19.50;61.30;;;;;;5104233;28;20054;-58
2020/12/04 16:41:14;;;;;;;0.60;0.50;;;19.40;61.30;;;;;;5102888;28;20027;-58
2020/12/04 16:43:40;;;;;;;2.47;0.63;;;19.40;61.20;;;;;;5104855;28;20035;-56
2020/12/04 16:46:10;;;;;;;0.82;0.70;;;19.50;61.20;;;;;;5105123;28;20036;-56
2020/12/04 16:48:36;;;;;;;1.10;0.40;;;19.50;61.20;;;;;;5106593;28;20407;-62
2020/12/04 16:51:07;;;;;;;0.57;0.57;;;19.50;61.10;;;;;;5105392;28;20024;-57
2020/12/04 16:53:33;;;;;;;0.75;0.50;;;19.50;61.00;;;;;;5102661;28;20073;-54
2020/12/04 16:55:59;;;;;;;2.40;0.55;;;19.50;61.10;;;;;;5103076;28;20785;-54
2020/12/04 16:58:25;;;;;;;0.73;0.60;;;19.40;61.20;;;;;;5097672;28;20028;-55
2020/12/04 17:00:51;;;;;;;2.13;0.60;;;19.40;62.20;;;;;;5104210;28;20069;-55
2020/12/04 17:03:17;;;;;;;1.35;0.45;;;19.40;61.50;;;;;;5105474;28;20444;-55
2020/12/04 17:05:43;;;;;;;1.85;0.40;;;19.40;61.20;;;;;;5103217;28;20027;-54
2020/12/04 17:08:08;;;;;;;4.13;0.98;;;19.30;61.50;;;;;;5102355;28;20032;-54
2020/12/04 17:10:35;;;;;;;1.77;0.68;;;19.30;61.40;;;;;;5100302;28;20024;-55
2020/12/04 17:13:01;;;;;;;3.90;0.60;;;19.30;61.60;;;;;;5104801;28;20043;-55
2020/12/04 17:15:27;;;;;;;0.75;0.75;;;19.40;61.70;;;;;;5109574;27;20023;-54
2020/12/04 17:17:52;;;;;;;2.92;0.63;;;19.40;61.50;;;;;;5107452;27;20539;-56
2020/12/04 17:20:18;;;;;;;0.73;0.55;;;19.40;61.50;;;;;;5108295;28;20046;-54
2020/12/04 17:22:45;;;;;;;0.50;0.50;;;19.40;61.50;;;;;;5098198;28;20023;-53
2020/12/04 17:25:11;;;;;;;0.60;0.50;;;19.40;61.60;;;;;;5099640;27;20080;-55
2020/12/04 17:27:37;;;;;;;1.27;0.50;;;19.40;61.40;;;;;;5100105;27;20432;-55
2020/12/04 17:30:03;;;;;;;3.95;0.43;;;19.40;61.50;;;;;;5107241;27;20031;-55
2020/12/04 17:32:30;;;;;;;1.85;0.50;;;19.40;61.60;;;;;;5110621;27;20561;-54
2020/12/04 17:34:56;;;;;;;0.55;0.50;;;19.40;61.50;;;;;;5106618;28;20032;-54
2020/12/04 17:37:26;;;;;;;0.50;0.50;;;19.40;61.40;;;;;;5106722;28;20100;-55
2020/12/04 17:39:51;;;;;;;0.45;0.43;;;19.40;61.40;;;;;;5106799;27;20102;-51
2020/12/04 17:42:17;;;;;;;2.05;0.50;;;19.40;61.30;;;;;;5108421;28;20543;-56
2020/12/04 17:44:44;;;;;;;0.80;0.70;;;19.30;61.20;;;;;;5106334;28;20543;-54
2020/12/04 17:47:10;;;;;;;2.58;0.52;;;19.30;61.10;;;;;;5107271;27;20533;-55
2020/12/04 17:49:36;;;;;;;0.93;0.50;;;19.30;61.30;;;;;;5097352;28;20510;-48
2020/12/04 17:52:03;;;;;;;1.38;0.47;;;19.30;61.50;;;;;;5108884;28;20024;-52
2020/12/04 17:54:29;;;;;;;1.77;0.82;;;19.30;61.60;;;;;;5109251;28;20076;-57
2020/12/04 17:56:54;;;;;;;1.10;0.82;;;19.20;61.70;;;;;;5108302;28;20027;-57
2020/12/04 17:59:20;;;;;;;1.05;0.90;;;19.10;61.90;;;;;;5110004;28;20020;-55
2020/12/04 18:01:48;;;;;;;2.92;0.80;;;19.20;62.00;;;;;;5107105;28;20052;-51
2020/12/04 18:04:14;;;;;;;0.73;0.73;;;19.10;62.20;;;;;;5107633;28;20035;-48
2020/12/04 18:06:41;;;;;;;1.60;0.70;;;19.20;61.60;;;;;;5106020;28;20479;-48
2020/12/04 18:09:08;;;;;;;0.73;0.73;;;19.30;61.60;;;;;;5108601;28;20142;-50
2020/12/04 18:11:33;;;;;;;1.38;0.57;;;19.30;61.30;;;;;;5106916;28;20031;-49
2020/12/04 18:13:59;;;;;;;1.15;0.90;;;19.40;61.50;;;;;;5108068;28;20056;-50
2020/12/04 18:16:29;;;;;;;0.98;0.80;;;19.30;61.50;;;;;;5106746;28;20032;-52
2020/12/04 18:18:55;;;;;;;1.60;0.75;;;19.30;61.90;;;;;;5104334;28;20023;-49
2020/12/04 18:21:21;;;;;;;2.97;0.80;;;19.30;62.00;;;;;;5102996;27;20031;-49
2020/12/04 18:23:47;;;;;;;1.25;0.70;;;19.20;61.90;;;;;;5099245;28;20096;-47
2020/12/04 18:26:15;;;;;;;0.70;0.70;;;19.20;61.80;;;;;;5101728;28;20074;-49
2020/12/04 18:28:40;;;;;;;5.25;1.65;;;19.40;61.60;;;;;;5102068;28;20398;-51
2020/12/04 18:31:06;;;;;;;3.55;0.70;;;19.30;61.70;;;;;;5103443;28;20032;-46
2020/12/04 18:33:32;;;;;;;0.90;0.90;;;19.40;61.50;;;;;;5107322;28;20028;-49
2020/12/04 18:36:01;;;;;;;1.10;1.00;;;19.30;61.70;;;;;;5105868;28;20490;-47
2020/12/04 18:38:26;;;;;;;0.90;0.77;;;19.20;61.90;;;;;;5104794;28;20585;-48
2020/12/04 18:40:54;;;;;;;0.80;0.80;;;19.10;62.20;;;;;;5101594;28;20115;-46
2020/12/04 18:43:19;;;;;;;2.70;1.30;;;19.20;62.40;;;;;;5102346;28;20020;-47
2020/12/04 18:45:45;;;;;;;2.75;1.23;;;19.10;62.30;;;;;;5105674;28;20509;-46
2020/12/04 18:48:11;;;;;;;2.55;1.23;;;19.10;62.30;;;;;;5104346;28;20031;-46
2020/12/04 18:50:36;;;;;;;1.15;1.00;;;19.10;62.50;;;;;;5106474;28;20015;-46
2020/12/04 18:53:03;;;;;;;2.78;1.10;;;19.10;62.70;;;;;;5099295;28;20043;-46
2020/12/04 18:55:29;;;;;;;1.50;1.10;;;19.10;63.00;;;;;;5106014;28;20019;-47
2020/12/04 18:57:55;;;;;;;1.70;1.00;;;19.20;63.40;;;;;;5104339;28;20475;-47
2020/12/04 19:00:21;;;;;;;1.10;1.00;;;19.20;63.00;;;;;;5104249;28;20046;-47
2020/12/04 19:02:48;;;;;;;2.35;0.95;;;19.20;62.90;;;;;;5103715;28;20039;-47
2020/12/04 19:05:14;;;;;;;1.45;1.15;;;19.10;63.00;;;;;;5101923;27;20055;-46
2020/12/04 19:07:42;;;;;;;2.75;1.30;;;19.10;63.30;;;;;;5102173;28;20032;-55
2020/12/04 19:10:08;;;;;;;4.50;1.25;;;19.20;63.40;;;;;;5104233;28;20019;-46
2020/12/04 19:12:34;;;;;;;2.35;1.55;;;19.20;63.30;;;;;;5105627;28;20034;-48
2020/12/04 19:15:00;;;;;;;1.25;1.15;;;19.20;63.30;;;;;;5103129;28;20043;-46
2020/12/04 19:17:26;;;;;;;5.70;1.55;;;19.10;63.20;;;;;;5103756;28;20135;-48
2020/12/04 19:19:52;;;;;;;6.07;1.30;;;19.20;63.60;;;;;;5102565;28;20038;-46
2020/12/04 19:22:18;;;;;;;3.92;1.63;;;19.10;63.50;;;;;;5104748;28;20055;-46
2020/12/04 19:24:44;;;;;;;3.20;1.60;;;19.20;63.80;;;;;;5104708;28;20444;-47
2020/12/04 19:27:10;;;;;;;1.42;1.33;;;19.20;63.50;;;;;;5102151;28;20067;-46
2020/12/04 19:29:36;;;;;;;1.95;1.85;;;19.30;63.30;;;;;;5103433;27;20019;-48
2020/12/04 19:32:02;;;;;;;5.75;2.15;;;19.20;63.50;;;;;;5104109;28;20030;-48
2020/12/04 19:34:28;;;;;;;1.90;1.67;;;19.20;64.50;;;;;;5103738;27;20459;-48
2020/12/04 19:36:57;;;;;;;1.95;1.80;;;19.10;63.80;;;;;;5108579;27;20478;-52
2020/12/04 19:39:23;;;;;;;2.28;1.83;;;19.20;63.70;;;;;;5100189;28;20578;-47
2020/12/04 19:41:48;;;;;;;2.47;1.80;;;19.10;63.60;;;;;;5101545;28;20035;-49
2020/12/04 19:44:16;;;;;;;1.55;1.45;;;19.10;64.10;;;;;;5103628;28;20027;-48
2020/12/04 19:46:41;;;;;;;2.40;1.35;;;19.10;63.80;;;;;;5101984;28;20594;-46
2020/12/04 19:49:07;;;;;;;2.33;2.10;;;19.20;63.90;;;;;;5102343;28;20035;-53
2020/12/04 19:51:33;;;;;;;3.72;1.80;;;19.20;63.80;;;;;;5104066;28;20039;-47
2020/12/04 19:53:59;;;;;;;1.90;1.75;;;19.20;63.80;;;;;;5102426;28;20044;-48
2020/12/04 19:56:25;;;;;;;1.95;1.70;;;19.20;63.80;;;;;;5102675;28;20035;-58
2020/12/04 19:58:51;;;;;;;2.45;1.42;;;19.10;64.00;;;;;;5102221;28;20043;-49
2020/12/04 20:01:18;;;;;;;5.18;1.73;;;19.20;63.80;;;;;;5103599;28;20032;-46
2020/12/04 20:03:44;;;;;;;2.85;1.67;;;19.20;63.70;;;;;;4747684;22;10002304;-47
2020/12/04 20:06:10;;;;;;;2.00;1.45;;;19.20;63.80;;;;;;5064638;28;20052;-46
2020/12/04 20:08:37;;;;;;;4.00;1.85;;;19.20;63.70;;;;;;5069653;28;20028;-48
2020/12/04 20:11:05;;;;;;;1.90;1.70;;;19.20;63.60;;;;;;5067300;28;20119;-48
2020/12/04 20:13:31;;;;;;;2.35;1.67;;;19.20;63.50;;;;;;5064091;28;20047;-46
2020/12/04 20:15:57;;;;;;;3.28;1.90;;;19.20;63.40;;;;;;5066273;28;20039;-46
2020/12/04 20:18:23;;;;;;;2.22;1.73;;;19.20;63.30;;;;;;5067387;28;20036;-47
2020/12/04 20:20:50;;;;;;;3.83;1.90;;;19.20;63.30;;;;;;5066892;28;20028;-47
2020/12/04 20:23:16;;;;;;;2.92;2.47;;;19.30;63.30;;;;;;5071905;28;20036;-47
2020/12/04 20:25:42;;;;;;;2.50;2.30;;;19.20;63.30;;;;;;5071538;28;20029;-46
2020/12/04 20:28:08;;;;;;;2.50;2.30;;;19.20;63.30;;;;;;5066393;28;20085;-48
2020/12/04 20:30:34;;;;;;;4.30;3.90;;;19.20;63.50;;;;;;5069817;28;20025;-46
2020/12/04 20:33:00;;;;;;;5.10;4.70;;;19.20;63.30;;;;;;5071435;28;20444;-47
2020/12/04 20:35:26;;;;;;;13.88;5.82;;;19.20;63.30;;;;;;5067672;28;20025;-46
2020/12/04 20:37:53;;;;;;;7.47;5.78;;;19.20;63.40;;;;;;5072704;28;20419;-49
2020/12/04 20:40:19;;;;;;;7.20;5.75;;;19.30;63.10;;;;;;5070886;28;20016;-46
2020/12/04 20:42:45;;;;;;;6.10;5.50;;;19.20;63.10;;;;;;5068252;28;20036;-47
2020/12/04 20:45:10;;;;;;;10.75;7.28;;;19.20;63.10;;;;;;5066575;28;20031;-46
2020/12/04 20:47:36;;;;;;;11.63;8.15;;;19.30;63.20;;;;;;5068687;28;20040;-52
2020/12/04 20:50:02;;;;;;;12.85;7.97;;;19.40;63.00;;;;;;5064082;28;20025;-47
2020/12/04 20:52:28;;;;;;;9.98;7.05;;;19.40;62.30;;;;;;5063662;28;20515;-48
2020/12/04 20:54:54;;;;;;;8.40;7.35;;;19.40;62.60;;;;;;5073336;28;20140;-47
2020/12/04 20:57:20;;;;;;;8.35;6.60;;;19.30;62.60;;;;;;5070554;28;20107;-49
2020/12/04 20:59:45;;;;;;;13.18;6.82;;;19.30;62.70;;;;;;5069630;28;20154;-49
2020/12/04 21:02:11;;;;;;;9.15;6.85;;;19.30;62.80;;;;;;5067821;28;20070;-50
2020/12/04 21:04:37;;;;;;;6.80;5.72;;;19.20;63.00;;;;;;5070431;28;20039;-51
2020/12/04 21:07:03;;;;;;;9.10;6.05;;;19.30;63.00;;;;;;5070464;28;20425;-49
2020/12/04 21:09:30;;;;;;;7.57;6.20;;;19.30;62.80;;;;;;5073587;28;20039;-49
2020/12/04 21:11:55;;;;;;;10.82;6.20;;;19.30;62.80;;;;;;5071536;28;20021;-50
2020/12/04 21:14:21;;;;;;;8.02;5.97;;;19.40;62.80;;;;;;5072134;28;20381;-48
2020/12/04 21:16:48;;;;;;;6.90;6.05;;;19.30;62.60;;;;;;5072189;28;20025;-46
2020/12/04 21:19:14;;;;;;;6.35;5.43;;;19.40;62.80;;;;;;5072302;28;20455;-46
2020/12/04 21:21:40;;;;;;;5.88;5.28;;;19.30;62.70;;;;;;5071759;28;20721;-45
2020/12/04 21:24:05;;;;;;;5.32;4.85;;;19.30;62.60;;;;;;5067771;28;20089;-44
2020/12/04 21:26:31;;;;;;;5.95;4.95;;;19.40;62.40;;;;;;5068270;28;20094;-43
2020/12/04 21:28:57;;;;;;;5.90;5.32;;;19.40;62.70;;;;;;5069636;28;20050;-47
2020/12/04 21:31:22;;;;;;;8.23;5.22;;;19.50;62.60;;;;;;5067139;28;20040;-49
2020/12/04 21:33:48;;;;;;;9.57;5.18;;;19.50;62.50;;;;;;5067643;28;20020;-47
2020/12/04 21:36:13;;;;;;;6.05;4.80;;;19.50;62.30;;;;;;5070561;28;20043;-45
2020/12/04 21:38:39;;;;;;;6.07;4.82;;;19.50;62.20;;;;;;5068581;28;20040;-46
2020/12/04 21:41:05;;;;;;;7.20;5.45;;;19.40;62.20;;;;;;5064954;28;20032;-48
2020/12/04 21:43:30;;;;;;;5.70;4.80;;;19.30;62.40;;;;;;5065979;28;20500;-48
2020/12/04 21:45:56;;;;;;;5.57;5.10;;;19.30;62.50;;;;;;5065251;28;20029;-52
2020/12/04 21:48:21;;;;;;;4.90;4.30;;;19.40;62.50;;;;;;5067488;28;20143;-47
2020/12/04 21:50:47;;;;;;;5.13;4.63;;;19.40;62.10;;;;;;5066116;28;20040;-48
2020/12/04 21:53:13;;;;;;;6.40;4.38;;;19.30;62.10;;;;;;5069758;28;20028;-50
2020/12/04 21:55:38;;;;;;;8.68;4.40;;;19.40;62.20;;;;;;5065559;28;20403;-50
2020/12/04 21:58:04;;;;;;;4.88;4.40;;;19.40;62.20;;;;;;5068499;28;20028;-45
2020/12/04 22:00:29;;;;;;;10.35;4.80;;;19.40;62.00;;;;;;5065191;28;20765;-52
2020/12/04 22:02:55;;;;;;;8.77;4.70;;;19.40;62.30;;;;;;5068908;28;20031;-56
2020/12/04 22:05:21;;;;;;;4.38;4.00;;;19.40;62.50;;;;;;5069364;28;20076;-48
2020/12/04 22:07:46;;;;;;;6.85;4.32;;;19.40;62.30;;;;;;5072838;28;20109;-47
2020/12/04 22:10:12;;;;;;;9.30;4.78;;;19.40;62.30;;;;;;5067136;28;20032;-49
2020/12/04 22:12:38;;;;;;;4.03;3.72;;;19.50;62.10;;;;;;5069362;28;20115;-50
2020/12/04 22:15:04;;;;;;;4.47;4.07;;;19.50;62.20;;;;;;5066501;28;20090;-56
2020/12/04 22:17:29;;;;;;;7.72;4.10;;;19.40;61.90;;;;;;5065695;28;20052;-51
2020/12/04 22:19:58;;;;;;;4.13;3.83;;;19.40;62.30;;;;;;5062377;28;20174;-49
2020/12/04 22:22:28;;;;;;;6.25;3.63;;;19.40;62.40;;;;;;5062083;28;20067;-49
2020/12/04 22:24:54;;;;;;;4.80;4.40;;;19.40;62.70;;;;;;5061784;28;20163;-52
2020/12/04 22:27:19;;;;;;;8.00;4.40;;;19.40;62.70;;;;;;5068143;28;20120;-47
2020/12/04 22:29:45;;;;;;;4.30;3.95;;;19.40;62.60;;;;;;5066682;28;20740;-48
2020/12/04 22:32:11;;;;;;;5.10;3.53;;;19.40;63.60;;;;;;5069036;28;20074;-48
2020/12/04 22:34:36;;;;;;;4.80;3.60;;;19.40;62.90;;;;;;5068524;28;20029;-49
2020/12/04 22:37:02;;;;;;;12.32;4.25;;;19.40;62.70;;;;;;5069652;28;20032;-52
2020/12/04 22:39:27;;;;;;;3.97;3.58;;;19.40;62.70;;;;;;5073734;28;20035;-49
2020/12/04 22:41:53;;;;;;;3.58;3.25;;;19.30;62.60;;;;;;5070877;28;20039;-52
2020/12/04 22:44:19;;;;;;;4.45;3.58;;;19.40;62.70;;;;;;5073229;28;20028;-48
